Time,TemperatureF,DewpointF,PressureIn,WindDirection,WindDirectionDegrees,WindSpeedMPH,WindSpeedGustMPH,Humidity,HourlyPrecipIn,Conditions,Clouds,dailyrainin,SoftwareType,DateUTC
2013-01-11 00:20:00,46.9,6.8,30.45,ESE,112,4.0,8.3,19,0.00,,SKC,0.00,VWS V14.01,2013-01-11 05:20:00,
2013-01-11 00:40:00,46.8,9.9,30.45,ESE,102,5.4,8.3,22,0.00,,SKC,0.00,VWS V14.01,2013-01-11 05:40:00,
2013-01-11 01:00:00,46.6,9.8,30.42,East,88,6.3,10.1,22,0.00,,SKC,0.00,VWS V14.01,2013-01-11 06:00:00,
2013-01-11 01:20:00,46.2,14.9,30.42,ESE,109,5.4,8.7,28,0.00,,SKC,0.00,VWS V14.01,2013-01-11 06:20:00,
2013-01-11 01:40:00,44.8,16.0,30.42,SE,127,3.1,10.5,31,0.00,,SKC,0.00,VWS V14.01,2013-01-11 06:40:00,
2013-01-11 02:00:00,43.3,18.8,30.42,East,96,4.0,8.3,37,0.00,,SKC,0.00,VWS V14.01,2013-01-11 07:00:00,
2013-01-11 02:20:00,43.2,19.9,30.42,East,91,6.3,8.1,39,0.00,,SKC,0.00,VWS V14.01,2013-01-11 07:20:00,
2013-01-11 02:40:00,42.8,25.9,30.42,ESE,119,5.8,8.1,51,0.04,,SKC,0.04,VWS V14.01,2013-01-11 07:40:00,
2013-01-11 03:00:00,42.3,30.2,30.42,East,101,4.9,9.6,62,0.04,,SKC,0.04,VWS V14.01,2013-01-11 08:00:00,
2013-01-11 03:20:00,42.6,31.7,30.42,East,100,8.7,8.7,65,0.04,,SKC,0.04,VWS V14.01,2013-01-11 08:20:00,
2013-01-11 03:40:00,42.4,31.9,30.39,ESE,114,0.0,8.7,66,0.08,,SKC,0.08,VWS V14.01,2013-01-11 08:40:00,
2013-01-11 04:00:00,42.4,33.4,30.39,ESE,110,3.6,6.3,70,0.04,,SKC,0.08,VWS V14.01,2013-01-11 09:00:00,
2013-01-11 04:20:00,42.6,34.6,30.36,East,95,6.3,10.5,73,0.08,,SKC,0.12,VWS V14.01,2013-01-11 09:20:00,
2013-01-11 04:40:00,43.0,36.0,30.36,ESE,110,8.7,10.5,76,0.08,,SKC,0.12,VWS V14.01,2013-01-11 09:40:00,
2013-01-11 05:00:00,42.6,35.9,30.36,ESE,114,8.1,13.2,77,0.04,,SKC,0.12,VWS V14.01,2013-01-11 10:00:00,
2013-01-11 05:20:00,42.4,36.7,30.36,ESE,102,8.1,13.2,80,0.04,,SKC,0.12,VWS V14.01,2013-01-11 10:20:00,
2013-01-11 05:40:00,42.1,37.0,30.33,ESE,108,5.8,12.3,82,0.00,,SKC,0.12,VWS V14.01,2013-01-11 10:40:00,
2013-01-11 06:00:00,42.3,37.2,30.36,ESE,115,4.9,8.7,82,0.00,,SKC,0.12,VWS V14.01,2013-01-11 11:00:00,
2013-01-11 06:20:00,42.1,37.6,30.33,East,93,8.7,13.2,84,0.00,,SKC,0.12,VWS V14.01,2013-01-11 11:20:00,
2013-01-11 06:40:00,42.1,38.5,30.33,SE,124,3.6,10.1,87,0.00,,SKC,0.12,VWS V14.01,2013-01-11 11:40:00,
2013-01-11 07:00:00,42.1,38.8,30.36,ESE,113,0.0,8.3,88,0.00,,SKC,0.12,VWS V14.01,2013-01-11 12:00:00,
2013-01-11 07:20:00,42.1,38.5,30.36,ESE,109,2.7,8.1,87,0.00,,SKC,0.12,VWS V14.01,2013-01-11 12:20:00,
2013-01-11 07:40:00,41.7,37.8,30.36,ENE,70,6.3,8.7,86,0.04,,SKC,0.16,VWS V14.01,2013-01-11 12:40:00,
2013-01-11 08:00:00,41.2,37.3,30.36,East,90,5.4,8.7,86,0.04,,SKC,0.16,VWS V14.01,2013-01-11 13:00:00,
2013-01-11 08:20:00,40.6,36.8,30.36,SE,124,2.7,10.1,86,0.04,,SKC,0.16,VWS V14.01,2013-01-11 13:20:00,
2013-01-11 08:40:00,40.5,36.9,30.36,East,89,0.0,6.3,87,0.04,,SKC,0.16,VWS V14.01,2013-01-11 13:40:00,
2013-01-11 09:00:00,40.5,36.9,30.36,SE,138,0.0,4.9,87,0.00,,SKC,0.16,VWS V14.01,2013-01-11 14:00:00,
2013-01-11 09:20:00,40.5,36.9,30.33,East,99,0.0,0.0,87,0.00,,SKC,0.16,VWS V14.01,2013-01-11 14:20:00,
2013-01-11 09:40:00,40.5,36.9,30.36,East,89,0.0,4.0,87,0.00,,SKC,0.16,VWS V14.01,2013-01-11 14:40:00,
2013-01-11 10:00:00,40.6,37.1,30.36,East,100,0.0,4.0,87,0.00,,SKC,0.16,VWS V14.01,2013-01-11 15:00:00,
2013-01-11 10:20:00,40.8,37.3,30.36,East,100,0.0,5.8,87,0.00,,SKC,0.16,VWS V14.01,2013-01-11 15:20:00,
2013-01-11 10:40:00,40.8,37.5,30.33,East,98,3.1,5.4,88,0.04,,SKC,0.20,VWS V14.01,2013-01-11 15:40:00,
2013-01-11 11:00:00,41.4,38.1,30.33,East,85,2.7,5.4,88,0.04,,SKC,0.20,VWS V14.01,2013-01-11 16:00:00,
2013-01-11 11:20:00,42.3,39.3,30.33,ESE,102,0.0,4.0,89,0.04,,SKC,0.20,VWS V14.01,2013-01-11 16:20:00,
2013-01-11 11:40:00,41.9,38.3,30.30,ESE,109,0.0,5.4,87,0.04,,SKC,0.20,VWS V14.01,2013-01-11 16:40:00,
2013-01-11 12:00:00,43.5,40.8,30.30,ESE,109,0.0,0.0,90,0.00,,SKC,0.20,VWS V14.01,2013-01-11 17:00:00,
2013-01-11 12:20:00,44.8,42.3,30.30,WNW,300,0.0,6.3,91,0.00,,SKC,0.20,VWS V14.01,2013-01-11 17:20:00,
2013-01-11 12:40:00,46.0,43.3,30.27,North,353,0.0,0.0,90,0.00,,SKC,0.20,VWS V14.01,2013-01-11 17:40:00,
2013-01-11 13:00:00,46.9,43.9,30.27,North,357,0.0,8.1,89,0.00,,SKC,0.20,VWS V14.01,2013-01-11 18:00:00,
2013-01-11 13:20:00,47.5,44.7,30.27,North,2,5.8,8.3,90,0.00,,SKC,0.20,VWS V14.01,2013-01-11 18:20:00,
2013-01-11 13:40:00,47.5,44.1,30.24,NW,318,3.6,8.1,88,0.00,,SKC,0.20,VWS V14.01,2013-01-11 18:40:00,
2013-01-11 14:00:00,48.2,45.4,30.24,NNW,345,5.4,7.6,90,0.00,,SKC,0.20,VWS V14.01,2013-01-11 19:00:00,
2013-01-11 14:20:00,49.1,46.6,30.27,North,2,0.0,7.6,91,0.00,,SKC,0.20,VWS V14.01,2013-01-11 19:20:00,
2013-01-11 14:40:00,50.0,47.2,30.24,WNW,290,5.8,8.3,90,0.00,,SKC,0.20,VWS V14.01,2013-01-11 19:40:00,
2013-01-11 15:00:00,50.5,47.7,30.24,WNW,298,4.9,9.6,90,0.00,,SKC,0.20,VWS V14.01,2013-01-11 20:00:00,
2013-01-11 15:20:00,50.5,47.7,30.24,West,262,5.8,8.1,90,0.00,,SKC,0.20,VWS V14.01,2013-01-11 20:20:00,
2013-01-11 15:40:00,51.6,49.1,30.24,NNW,335,3.1,8.3,91,0.00,,SKC,0.20,VWS V14.01,2013-01-11 20:40:00,
2013-01-11 16:00:00,51.6,48.8,30.24,North,353,3.1,5.4,90,0.00,,SKC,0.20,VWS V14.01,2013-01-11 21:00:00,
2013-01-11 16:20:00,52.2,49.6,30.24,NNW,343,0.0,6.3,91,0.00,,SKC,0.20,VWS V14.01,2013-01-11 21:20:00,
2013-01-11 16:40:00,52.7,50.2,30.24,NNE,27,0.0,4.0,91,0.00,,SKC,0.20,VWS V14.01,2013-01-11 21:40:00,
2013-01-11 17:00:00,52.7,49.5,30.24,NW,314,7.2,7.2,89,0.00,,SKC,0.20,VWS V14.01,2013-01-11 22:00:00,
2013-01-11 17:20:00,51.8,48.4,30.24,North,2,0.0,7.2,88,0.00,,SKC,0.20,VWS V14.01,2013-01-11 22:20:00,
2013-01-11 17:40:00,51.6,48.5,30.24,NNW,328,3.1,5.4,89,0.00,,SKC,0.20,VWS V14.01,2013-01-11 22:40:00,
2013-01-11 18:00:00,51.6,48.8,30.24,NW,308,0.0,5.8,90,0.00,,SKC,0.20,VWS V14.01,2013-01-11 23:00:00,
2013-01-11 18:20:00,51.6,48.5,30.24,North,350,0.0,0.0,89,0.00,,SKC,0.20,VWS V14.01,2013-01-11 23:20:00,
2013-01-11 18:40:00,51.4,48.3,30.24,WNW,292,0.0,8.3,89,0.00,,SKC,0.20,VWS V14.01,2013-01-11 23:40:00,
2013-01-11 19:00:00,51.3,47.8,30.27,NNW,342,0.0,0.0,88,0.00,,SKC,0.20,VWS V14.01,2013-01-12 00:00:00,
2013-01-11 19:20:00,50.2,46.5,30.27,NNW,342,0.0,0.0,87,0.00,,SKC,0.20,VWS V14.01,2013-01-12 00:20:00,
2013-01-11 19:40:00,50.0,46.3,30.27,NNW,342,0.0,0.0,87,0.00,,SKC,0.20,VWS V14.01,2013-01-12 00:40:00,
2013-01-11 20:00:00,48.7,44.8,30.27,NNW,342,0.0,0.0,86,0.00,,SKC,0.20,VWS V14.01,2013-01-12 01:00:00,
2013-01-11 20:20:00,48.0,44.0,30.27,NNW,342,0.0,0.0,86,0.00,,SKC,0.20,VWS V14.01,2013-01-12 01:20:00,
2013-01-11 20:40:00,46.9,43.0,30.27,NNW,342,0.0,0.0,86,0.00,,SKC,0.20,VWS V14.01,2013-01-12 01:40:00,
2013-01-11 21:00:00,46.0,42.1,30.27,NNW,342,0.0,0.0,86,0.00,,SKC,0.20,VWS V14.01,2013-01-12 02:00:00,
2013-01-11 21:20:00,45.7,42.0,30.27,NNW,342,0.0,0.0,87,0.00,,SKC,0.20,VWS V14.01,2013-01-12 02:20:00,
2013-01-11 21:40:00,44.8,40.9,30.27,NNW,342,0.0,0.0,86,0.00,,SKC,0.20,VWS V14.01,2013-01-12 02:40:00,
2013-01-11 22:00:00,44.2,40.6,30.27,NNW,342,0.0,0.0,87,0.00,,SKC,0.20,VWS V14.01,2013-01-12 03:00:00,
2013-01-11 22:20:00,44.1,40.5,30.27,NNW,342,0.0,0.0,87,0.00,,SKC,0.20,VWS V14.01,2013-01-12 03:20:00,
2013-01-11 22:40:00,43.5,39.9,30.27,NNW,342,0.0,0.0,87,0.00,,SKC,0.20,VWS V14.01,2013-01-12 03:40:00,
2013-01-11 23:00:00,43.9,40.6,30.27,NNW,342,0.0,0.0,88,0.00,,SKC,0.20,VWS V14.01,2013-01-12 04:00:00,
2013-01-11 23:20:00,44.1,40.7,30.27,NNW,342,0.0,0.0,88,0.00,,SKC,0.20,VWS V14.01,2013-01-12 04:20:00,
2013-01-11 23:40:00,44.1,40.7,30.27,NNW,342,0.0,0.0,88,0.00,,SKC,0.20,VWS V14.01,2013-01-12 04:40:00,